sensor_id;sensor_type;location;lat;lon;timestamp;pressure;altitude;pressure_sealevel;temperature;humidity
37634;BME280;32048;49.902;22.508;2023-06-22T00:00:02;98829.44;;;18.32;100.00
37634;BME280;32048;49.902;22.508;2023-06-22T00:02:55;98833.69;;;18.35;100.00
37634;BME280;32048;49.902;22.508;2023-06-22T00:05:22;98829.78;;;18.39;100.00
37634;BME280;32048;49.902;22.508;2023-06-22T00:07:49;98829.25;;;18.45;100.00
37634;BME280;32048;49.902;22.508;2023-06-22T00:10:16;98835.34;;;18.47;100.00
37634;BME280;32048;49.902;22.508;2023-06-22T00:12:43;98828.63;;;18.53;100.00
37634;BME280;32048;49.902;22.508;2023-06-22T00:15:10;98838.94;;;18.57;100.00
37634;BME280;32048;49.902;22.508;2023-06-22T00:17:37;98828.47;;;18.65;100.00
37634;BME280;32048;49.902;22.508;2023-06-22T00:20:05;98828.75;;;18.72;100.00
37634;BME280;32048;49.902;22.508;2023-06-22T00:22:32;98825.59;;;18.78;100.00
37634;BME280;32048;49.902;22.508;2023-06-22T00:25:09;98825.09;;;18.84;100.00
37634;BME280;32048;49.902;22.508;2023-06-22T00:27:36;98827.09;;;18.92;100.00
37634;BME280;32048;49.902;22.508;2023-06-22T00:30:04;98831.94;;;18.98;100.00
37634;BME280;32048;49.902;22.508;2023-06-22T00:32:31;98828.16;;;19.01;100.00
37634;BME280;32048;49.902;22.508;2023-06-22T00:34:58;98829.03;;;19.01;100.00
37634;BME280;32048;49.902;22.508;2023-06-22T00:37:26;98832.66;;;19.00;100.00
37634;BME280;32048;49.902;22.508;2023-06-22T00:39:56;98827.59;;;18.97;100.00
37634;BME280;32048;49.902;22.508;2023-06-22T00:42:23;98831.63;;;18.92;100.00
37634;BME280;32048;49.902;22.508;2023-06-22T00:44:50;98821.31;;;18.87;100.00
37634;BME280;32048;49.902;22.508;2023-06-22T00:47:18;98818.06;;;18.83;100.00
37634;BME280;32048;49.902;22.508;2023-06-22T00:49:47;98816.47;;;18.81;100.00
37634;BME280;32048;49.902;22.508;2023-06-22T00:52:15;98817.59;;;18.78;100.00
37634;BME280;32048;49.902;22.508;2023-06-22T00:54:48;98817.09;;;18.73;100.00
37634;BME280;32048;49.902;22.508;2023-06-22T00:57:18;98822.25;;;18.65;100.00
37634;BME280;32048;49.902;22.508;2023-06-22T00:59:47;98819.97;;;18.60;100.00
37634;BME280;32048;49.902;22.508;2023-06-22T01:02:14;98824.59;;;18.58;100.00
37634;BME280;32048;49.902;22.508;2023-06-22T01:04:41;98816.09;;;18.53;100.00
37634;BME280;32048;49.902;22.508;2023-06-22T01:07:24;98810.16;;;18.49;100.00
37634;BME280;32048;49.902;22.508;2023-06-22T01:10:07;98815.56;;;18.38;100.00
37634;BME280;32048;49.902;22.508;2023-06-22T01:12:44;98816.44;;;18.39;100.00
37634;BME280;32048;49.902;22.508;2023-06-22T01:15:18;98803.91;;;18.39;100.00
37634;BME280;32048;49.902;22.508;2023-06-22T01:17:48;98799.13;;;18.43;100.00
37634;BME280;32048;49.902;22.508;2023-06-22T01:20:17;98799.00;;;18.44;100.00
37634;BME280;32048;49.902;22.508;2023-06-22T01:23:10;98793.66;;;18.44;100.00
37634;BME280;32048;49.902;22.508;2023-06-22T01:25:50;98791.59;;;18.48;100.00
37634;BME280;32048;49.902;22.508;2023-06-22T01:28:43;98799.34;;;18.51;100.00
37634;BME280;32048;49.902;22.508;2023-06-22T01:31:14;98809.66;;;18.56;100.00
37634;BME280;32048;49.902;22.508;2023-06-22T01:33:44;98808.81;;;18.55;100.00
37634;BME280;32048;49.902;22.508;2023-06-22T01:36:14;98812.31;;;18.56;100.00
37634;BME280;32048;49.902;22.508;2023-06-22T01:38:42;98808.94;;;18.54;100.00
37634;BME280;32048;49.902;22.508;2023-06-22T01:41:10;98806.41;;;18.52;100.00
37634;BME280;32048;49.902;22.508;2023-06-22T01:43:37;98799.59;;;18.48;100.00
37634;BME280;32048;49.902;22.508;2023-06-22T01:46:06;98797.16;;;18.45;100.00
37634;BME280;32048;49.902;22.508;2023-06-22T01:48:34;98796.59;;;18.41;100.00
37634;BME280;32048;49.902;22.508;2023-06-22T01:51:02;98801.72;;;18.33;100.00
37634;BME280;32048;49.902;22.508;2023-06-22T01:53:29;98810.84;;;18.31;100.00
37634;BME280;32048;49.902;22.508;2023-06-22T01:55:56;98812.09;;;18.26;100.00
37634;BME280;32048;49.902;22.508;2023-06-22T01:58:26;98823.50;;;18.28;100.00
37634;BME280;32048;49.902;22.508;2023-06-22T02:01:09;98827.41;;;18.24;100.00
37634;BME280;32048;49.902;22.508;2023-06-22T02:04:19;98830.34;;;18.21;100.00
37634;BME280;32048;49.902;22.508;2023-06-22T02:06:45;98823.88;;;18.24;100.00
37634;BME280;32048;49.902;22.508;2023-06-22T02:09:16;98825.56;;;18.25;100.00
37634;BME280;32048;49.902;22.508;2023-06-22T02:11:45;98829.94;;;18.26;100.00
37634;BME280;32048;49.902;22.508;2023-06-22T02:14:13;98832.41;;;18.18;100.00
37634;BME280;32048;49.902;22.508;2023-06-22T02:16:41;98836.41;;;18.23;100.00
37634;BME280;32048;49.902;22.508;2023-06-22T02:19:09;98827.66;;;18.21;100.00
37634;BME280;32048;49.902;22.508;2023-06-22T02:21:36;98824.72;;;18.24;100.00
37634;BME280;32048;49.902;22.508;2023-06-22T02:24:03;98827.66;;;18.21;100.00
37634;BME280;32048;49.902;22.508;2023-06-22T02:26:31;98829.72;;;18.18;100.00
37634;BME280;32048;49.902;22.508;2023-06-22T02:28:59;98829.00;;;18.16;100.00
37634;BME280;32048;49.902;22.508;2023-06-22T02:31:26;98832.66;;;18.15;100.00
37634;BME280;32048;49.902;22.508;2023-06-22T02:33:58;98847.84;;;18.14;100.00
37634;BME280;32048;49.902;22.508;2023-06-22T02:36:25;98852.47;;;18.12;100.00
37634;BME280;32048;49.902;22.508;2023-06-22T02:38:54;98857.09;;;18.10;100.00
37634;BME280;32048;49.902;22.508;2023-06-22T02:41:23;98853.56;;;18.10;100.00
37634;BME280;32048;49.902;22.508;2023-06-22T02:43:50;98856.75;;;18.03;100.00
37634;BME280;32048;49.902;22.508;2023-06-22T02:46:17;98869.84;;;17.95;100.00
37634;BME280;32048;49.902;22.508;2023-06-22T02:48:44;98858.81;;;17.89;100.00
37634;BME280;32048;49.902;22.508;2023-06-22T02:51:13;98846.44;;;17.88;100.00
37634;BME280;32048;49.902;22.508;2023-06-22T02:53:40;98851.78;;;17.88;100.00
37634;BME280;32048;49.902;22.508;2023-06-22T02:56:11;98848.28;;;17.87;100.00
37634;BME280;32048;49.902;22.508;2023-06-22T02:58:39;98862.47;;;17.88;100.00
37634;BME280;32048;49.902;22.508;2023-06-22T03:01:06;98855.19;;;17.90;100.00
37634;BME280;32048;49.902;22.508;2023-06-22T03:03:33;98856.75;;;17.92;100.00
37634;BME280;32048;49.902;22.508;2023-06-22T03:06:01;98854.94;;;17.93;100.00
37634;BME280;32048;49.902;22.508;2023-06-22T03:08:28;98860.16;;;17.94;100.00
37634;BME280;32048;49.902;22.508;2023-06-22T03:10:56;98861.84;;;17.95;100.00
37634;BME280;32048;49.902;22.508;2023-06-22T03:13:23;98859.78;;;17.99;100.00
37634;BME280;32048;49.902;22.508;2023-06-22T03:15:51;98866.59;;;18.03;100.00
37634;BME280;32048;49.902;22.508;2023-06-22T03:18:18;98853.69;;;18.08;100.00
37634;BME280;32048;49.902;22.508;2023-06-22T03:20:45;98857.94;;;18.11;100.00
37634;BME280;32048;49.902;22.508;2023-06-22T03:23:12;98861.34;;;18.13;100.00
37634;BME280;32048;49.902;22.508;2023-06-22T03:25:39;98859.84;;;18.20;100.00
37634;BME280;32048;49.902;22.508;2023-06-22T03:28:06;98858.50;;;18.25;100.00
37634;BME280;32048;49.902;22.508;2023-06-22T03:30:33;98871.63;;;18.28;100.00
37634;BME280;32048;49.902;22.508;2023-06-22T03:33:00;98882.31;;;18.28;100.00
37634;BME280;32048;49.902;22.508;2023-06-22T03:35:27;98881.47;;;18.28;100.00
37634;BME280;32048;49.902;22.508;2023-06-22T03:37:54;98876.13;;;18.28;100.00
37634;BME280;32048;49.902;22.508;2023-06-22T03:40:22;98879.75;;;18.27;100.00
37634;BME280;32048;49.902;22.508;2023-06-22T03:42:50;98883.16;;;18.29;100.00
37634;BME280;32048;49.902;22.508;2023-06-22T03:45:18;98876.69;;;18.32;100.00
37634;BME280;32048;49.902;22.508;2023-06-22T03:47:45;98869.16;;;18.37;100.00
37634;BME280;32048;49.902;22.508;2023-06-22T03:50:12;98871.09;;;18.46;100.00
37634;BME280;32048;49.902;22.508;2023-06-22T03:52:40;98879.31;;;18.54;100.00
37634;BME280;32048;49.902;22.508;2023-06-22T03:55:07;98879.41;;;18.64;100.00
37634;BME280;32048;49.902;22.508;2023-06-22T03:57:34;98882.25;;;18.72;100.00
37634;BME280;32048;49.902;22.508;2023-06-22T04:00:02;98883.50;;;18.79;100.00
37634;BME280;32048;49.902;22.508;2023-06-22T04:02:32;98891.00;;;18.85;100.00
37634;BME280;32048;49.902;22.508;2023-06-22T04:04:59;98897.41;;;18.94;100.00
37634;BME280;32048;49.902;22.508;2023-06-22T04:07:30;98894.66;;;19.05;100.00
37634;BME280;32048;49.902;22.508;2023-06-22T04:09:57;98899.13;;;19.16;100.00
37634;BME280;32048;49.902;22.508;2023-06-22T04:12:24;98891.63;;;19.31;100.00
37634;BME280;32048;49.902;22.508;2023-06-22T04:14:51;98888.69;;;19.44;100.00
37634;BME280;32048;49.902;22.508;2023-06-22T04:17:18;98890.22;;;19.58;100.00
37634;BME280;32048;49.902;22.508;2023-06-22T04:19:46;98894.25;;;19.73;100.00
37634;BME280;32048;49.902;22.508;2023-06-22T04:22:13;98910.94;;;19.86;100.00
37634;BME280;32048;49.902;22.508;2023-06-22T04:24:40;98898.00;;;20.01;100.00
37634;BME280;32048;49.902;22.508;2023-06-22T04:27:07;98896.22;;;20.11;100.00
37634;BME280;32048;49.902;22.508;2023-06-22T04:29:34;98907.38;;;20.26;100.00
37634;BME280;32048;49.902;22.508;2023-06-22T04:32:01;98920.56;;;20.39;100.00
37634;BME280;32048;49.902;22.508;2023-06-22T04:34:33;98921.84;;;20.54;100.00
37634;BME280;32048;49.902;22.508;2023-06-22T04:36:59;98923.72;;;20.64;100.00
37634;BME280;32048;49.902;22.508;2023-06-22T04:39:27;98926.28;;;20.75;100.00
37634;BME280;32048;49.902;22.508;2023-06-22T04:41:54;98926.56;;;20.82;100.00
37634;BME280;32048;49.902;22.508;2023-06-22T04:44:27;98927.56;;;20.90;100.00
37634;BME280;32048;49.902;22.508;2023-06-22T04:46:58;98928.09;;;20.94;100.00
37634;BME280;32048;49.902;22.508;2023-06-22T04:49:30;98915.97;;;21.00;100.00
37634;BME280;32048;49.902;22.508;2023-06-22T04:52:09;98920.50;;;20.99;100.00
37634;BME280;32048;49.902;22.508;2023-06-22T04:54:38;98924.59;;;21.03;100.00
37634;BME280;32048;49.902;22.508;2023-06-22T04:57:07;98916.56;;;21.03;100.00
37634;BME280;32048;49.902;22.508;2023-06-22T04:59:38;98920.78;;;21.06;100.00
37634;BME280;32048;49.902;22.508;2023-06-22T05:02:05;98928.69;;;21.07;100.00
37634;BME280;32048;49.902;22.508;2023-06-22T05:04:33;98931.94;;;21.11;100.00
37634;BME280;32048;49.902;22.508;2023-06-22T05:07:03;98939.25;;;21.18;100.00
37634;BME280;32048;49.902;22.508;2023-06-22T05:09:30;98942.66;;;21.30;100.00
37634;BME280;32048;49.902;22.508;2023-06-22T05:11:58;98942.81;;;21.48;100.00
37634;BME280;32048;49.902;22.508;2023-06-22T05:14:26;98947.97;;;21.69;100.00
37634;BME280;32048;49.902;22.508;2023-06-22T05:16:53;98953.88;;;21.83;100.00
37634;BME280;32048;49.902;22.508;2023-06-22T05:19:20;98956.97;;;21.97;100.00
37634;BME280;32048;49.902;22.508;2023-06-22T05:21:47;98961.44;;;22.07;100.00
37634;BME280;32048;49.902;22.508;2023-06-22T05:24:14;98973.59;;;22.11;100.00
37634;BME280;32048;49.902;22.508;2023-06-22T05:26:41;98971.31;;;22.16;100.00
37634;BME280;32048;49.902;22.508;2023-06-22T05:29:08;98967.91;;;22.24;100.00
37634;BME280;32048;49.902;22.508;2023-06-22T05:31:35;98968.97;;;22.31;100.00
37634;BME280;32048;49.902;22.508;2023-06-22T05:34:03;98971.09;;;22.37;100.00
37634;BME280;32048;49.902;22.508;2023-06-22T05:36:29;98977.88;;;22.41;100.00
37634;BME280;32048;49.902;22.508;2023-06-22T05:38:59;98971.69;;;22.31;100.00
37634;BME280;32048;49.902;22.508;2023-06-22T05:41:26;98971.97;;;22.28;100.00
37634;BME280;32048;49.902;22.508;2023-06-22T05:43:53;98983.84;;;22.35;100.00
37634;BME280;32048;49.902;22.508;2023-06-22T05:46:20;98979.13;;;22.47;100.00
37634;BME280;32048;49.902;22.508;2023-06-22T05:48:47;98980.59;;;22.59;100.00
37634;BME280;32048;49.902;22.508;2023-06-22T05:51:14;98989.25;;;22.80;100.00
37634;BME280;32048;49.902;22.508;2023-06-22T05:53:41;98986.28;;;23.01;100.00
37634;BME280;32048;49.902;22.508;2023-06-22T05:56:08;98980.75;;;23.21;100.00
37634;BME280;32048;49.902;22.508;2023-06-22T05:58:35;98976.34;;;23.38;100.00
37634;BME280;32048;49.902;22.508;2023-06-22T06:01:02;98985.09;;;23.58;100.00
37634;BME280;32048;49.902;22.508;2023-06-22T06:03:29;98983.06;;;23.78;98.17
37634;BME280;32048;49.902;22.508;2023-06-22T06:05:56;98981.41;;;24.11;97.99
37634;BME280;32048;49.902;22.508;2023-06-22T06:08:25;98976.53;;;24.49;96.65
37634;BME280;32048;49.902;22.508;2023-06-22T06:10:52;98973.28;;;24.80;91.19
37634;BME280;32048;49.902;22.508;2023-06-22T06:13:20;98978.16;;;24.93;87.20
37634;BME280;32048;49.902;22.508;2023-06-22T06:15:47;98979.19;;;25.00;86.89
37634;BME280;32048;49.902;22.508;2023-06-22T06:18:14;98984.59;;;25.08;87.83
37634;BME280;32048;49.902;22.508;2023-06-22T06:20:42;98980.06;;;25.17;84.77
37634;BME280;32048;49.902;22.508;2023-06-22T06:23:09;98985.31;;;25.26;84.99
37634;BME280;32048;49.902;22.508;2023-06-22T06:25:36;98987.38;;;25.41;83.48
37634;BME280;32048;49.902;22.508;2023-06-22T06:28:03;98993.63;;;25.49;84.25
37634;BME280;32048;49.902;22.508;2023-06-22T06:30:30;98987.03;;;25.52;81.99
37634;BME280;32048;49.902;22.508;2023-06-22T06:32:58;98984.84;;;25.39;82.84
37634;BME280;32048;49.902;22.508;2023-06-22T06:35:25;98989.38;;;25.30;83.97
37634;BME280;32048;49.902;22.508;2023-06-22T06:37:53;98993.09;;;25.21;85.06
37634;BME280;32048;49.902;22.508;2023-06-22T06:40:20;98985.84;;;25.22;86.00
37634;BME280;32048;49.902;22.508;2023-06-22T06:42:48;98995.66;;;25.23;87.13
37634;BME280;32048;49.902;22.508;2023-06-22T06:45:20;98987.88;;;25.36;86.45
37634;BME280;32048;49.902;22.508;2023-06-22T06:47:51;98994.94;;;25.54;85.91
37634;BME280;32048;49.902;22.508;2023-06-22T06:50:18;98995.47;;;25.65;83.57
37634;BME280;32048;49.902;22.508;2023-06-22T06:52:46;98983.94;;;25.71;83.53
37634;BME280;32048;49.902;22.508;2023-06-22T06:55:13;98984.78;;;25.80;84.58
37634;BME280;32048;49.902;22.508;2023-06-22T06:57:41;98989.34;;;25.96;84.80
37634;BME280;32048;49.902;22.508;2023-06-22T07:00:11;98984.22;;;26.18;85.42
37634;BME280;32048;49.902;22.508;2023-06-22T07:02:44;98984.97;;;26.43;83.42
37634;BME280;32048;49.902;22.508;2023-06-22T07:05:12;98979.84;;;26.64;80.91
37634;BME280;32048;49.902;22.508;2023-06-22T07:07:40;98974.84;;;26.76;75.85
37634;BME280;32048;49.902;22.508;2023-06-22T07:10:08;98980.75;;;26.80;76.40
37634;BME280;32048;49.902;22.508;2023-06-22T07:12:36;98980.94;;;26.78;75.35
37634;BME280;32048;49.902;22.508;2023-06-22T07:15:04;98983.66;;;26.78;76.15
37634;BME280;32048;49.902;22.508;2023-06-22T07:17:32;98983.66;;;26.78;75.58
37634;BME280;32048;49.902;22.508;2023-06-22T07:19:59;98978.66;;;26.90;76.25
37634;BME280;32048;49.902;22.508;2023-06-22T07:22:26;98977.31;;;27.40;75.81
37634;BME280;32048;49.902;22.508;2023-06-22T07:24:53;98970.31;;;28.13;71.39
37634;BME280;32048;49.902;22.508;2023-06-22T07:27:20;98962.34;;;28.93;65.92
37634;BME280;32048;49.902;22.508;2023-06-22T07:29:48;98969.22;;;29.53;63.92
37634;BME280;32048;49.902;22.508;2023-06-22T07:32:15;98979.94;;;29.83;59.49
37634;BME280;32048;49.902;22.508;2023-06-22T07:34:42;98979.88;;;30.04;57.77
37634;BME280;32048;49.902;22.508;2023-06-22T07:37:10;98988.78;;;30.26;59.85
37634;BME280;32048;49.902;22.508;2023-06-22T07:39:37;98991.78;;;30.80;57.83
37634;BME280;32048;49.902;22.508;2023-06-22T07:42:05;98990.28;;;31.45;53.42
37634;BME280;32048;49.902;22.508;2023-06-22T07:44:32;98994.09;;;32.04;51.86
37634;BME280;32048;49.902;22.508;2023-06-22T07:46:59;98993.47;;;32.74;50.87
37634;BME280;32048;49.902;22.508;2023-06-22T07:49:27;98991.34;;;33.46;45.79
37634;BME280;32048;49.902;22.508;2023-06-22T07:51:55;98990.38;;;33.91;46.16
37634;BME280;32048;49.902;22.508;2023-06-22T07:54:22;98988.81;;;34.57;45.22
37634;BME280;32048;49.902;22.508;2023-06-22T07:56:49;98997.50;;;35.21;42.30
37634;BME280;32048;49.902;22.508;2023-06-22T07:59:16;98998.25;;;35.82;41.91
37634;BME280;32048;49.902;22.508;2023-06-22T08:01:43;99001.22;;;36.39;40.02
37634;BME280;32048;49.902;22.508;2023-06-22T08:04:10;99005.31;;;36.89;38.67
37634;BME280;32048;49.902;22.508;2023-06-22T08:06:37;99002.16;;;37.26;38.43
37634;BME280;32048;49.902;22.508;2023-06-22T08:09:04;98999.56;;;37.65;37.64
37634;BME280;32048;49.902;22.508;2023-06-22T08:11:31;98994.94;;;38.04;36.70
37634;BME280;32048;49.902;22.508;2023-06-22T08:13:58;98987.00;;;38.08;35.11
37634;BME280;32048;49.902;22.508;2023-06-22T08:16:25;98985.13;;;38.14;35.61
37634;BME280;32048;49.902;22.508;2023-06-22T08:18:52;98980.28;;;38.43;34.80
37634;BME280;32048;49.902;22.508;2023-06-22T08:21:20;98982.59;;;38.68;35.22
37634;BME280;32048;49.902;22.508;2023-06-22T08:23:48;98987.63;;;38.76;34.77
37634;BME280;32048;49.902;22.508;2023-06-22T08:26:15;98986.75;;;38.71;34.48
37634;BME280;32048;49.902;22.508;2023-06-22T08:28:42;98992.06;;;38.55;34.28
37634;BME280;32048;49.902;22.508;2023-06-22T08:31:09;98984.75;;;38.66;34.43
37634;BME280;32048;49.902;22.508;2023-06-22T08:33:39;98982.88;;;38.94;34.67
37634;BME280;32048;49.902;22.508;2023-06-22T08:36:15;98980.31;;;39.41;33.51
37634;BME280;32048;49.902;22.508;2023-06-22T08:38:43;98971.28;;;39.83;32.52
37634;BME280;32048;49.902;22.508;2023-06-22T08:41:10;98969.84;;;40.18;32.92
37634;BME280;32048;49.902;22.508;2023-06-22T08:43:37;98976.66;;;40.48;31.37
37634;BME280;32048;49.902;22.508;2023-06-22T08:46:04;98979.75;;;40.67;31.13
37634;BME280;32048;49.902;22.508;2023-06-22T08:48:31;98977.06;;;40.87;30.84
37634;BME280;32048;49.902;22.508;2023-06-22T08:50:58;98971.28;;;40.94;30.62
37634;BME280;32048;49.902;22.508;2023-06-22T08:53:25;98972.09;;;40.89;30.49
37634;BME280;32048;49.902;22.508;2023-06-22T08:55:52;98972.69;;;41.07;31.76
37634;BME280;32048;49.902;22.508;2023-06-22T08:58:19;98969.16;;;41.22;31.04
37634;BME280;32048;49.902;22.508;2023-06-22T09:00:48;98968.03;;;41.23;29.63
37634;BME280;32048;49.902;22.508;2023-06-22T09:03:15;98968.53;;;41.09;30.15
37634;BME280;32048;49.902;22.508;2023-06-22T09:05:42;98975.16;;;40.88;30.25
37634;BME280;32048;49.902;22.508;2023-06-22T09:08:10;98968.41;;;40.68;31.95
37634;BME280;32048;49.902;22.508;2023-06-22T09:10:38;98968.22;;;40.90;30.87
37634;BME280;32048;49.902;22.508;2023-06-22T09:13:04;98977.16;;;41.23;31.29
37634;BME280;32048;49.902;22.508;2023-06-22T09:15:32;98974.44;;;41.59;30.91
37634;BME280;32048;49.902;22.508;2023-06-22T09:17:59;98976.34;;;41.89;30.12
37634;BME280;32048;49.902;22.508;2023-06-22T09:20:27;98975.47;;;42.20;28.79
37634;BME280;32048;49.902;22.508;2023-06-22T09:22:54;98976.81;;;42.43;28.45
37634;BME280;32048;49.902;22.508;2023-06-22T09:25:21;98969.56;;;42.52;29.03
37634;BME280;32048;49.902;22.508;2023-06-22T09:27:48;98969.84;;;42.40;27.96
37634;BME280;32048;49.902;22.508;2023-06-22T09:30:15;98973.03;;;41.87;29.16
37634;BME280;32048;49.902;22.508;2023-06-22T09:32:42;98976.56;;;41.11;29.03
37634;BME280;32048;49.902;22.508;2023-06-22T09:35:11;98975.38;;;40.71;30.52
37634;BME280;32048;49.902;22.508;2023-06-22T09:37:40;98972.75;;;40.44;30.08
37634;BME280;32048;49.902;22.508;2023-06-22T09:40:08;98964.13;;;40.30;30.86
37634;BME280;32048;49.902;22.508;2023-06-22T09:42:37;98962.94;;;40.21;30.29
37634;BME280;32048;49.902;22.508;2023-06-22T09:45:05;98955.94;;;40.03;30.67
37634;BME280;32048;49.902;22.508;2023-06-22T09:47:32;98952.31;;;40.50;30.86
37634;BME280;32048;49.902;22.508;2023-06-22T09:49:59;98951.63;;;40.90;30.31
37634;BME280;32048;49.902;22.508;2023-06-22T09:52:26;98950.78;;;40.95;29.33
37634;BME280;32048;49.902;22.508;2023-06-22T09:55:12;98949.69;;;41.01;30.34
37634;BME280;32048;49.902;22.508;2023-06-22T09:57:39;98948.63;;;41.18;29.30
37634;BME280;32048;49.902;22.508;2023-06-22T10:00:07;98952.22;;;41.18;28.26
37634;BME280;32048;49.902;22.508;2023-06-22T10:02:41;98946.91;;;40.96;29.53
37634;BME280;32048;49.902;22.508;2023-06-22T10:05:08;98954.72;;;41.14;30.78
37634;BME280;32048;49.902;22.508;2023-06-22T10:07:36;98951.97;;;41.20;28.66
37634;BME280;32048;49.902;22.508;2023-06-22T10:10:07;98946.91;;;40.86;29.38
37634;BME280;32048;49.902;22.508;2023-06-22T10:12:34;98943.16;;;39.97;29.80
37634;BME280;32048;49.902;22.508;2023-06-22T10:15:02;98944.63;;;39.07;31.84
37634;BME280;32048;49.902;22.508;2023-06-22T10:17:29;98951.31;;;38.62;32.77
37634;BME280;32048;49.902;22.508;2023-06-22T10:19:56;98950.34;;;39.28;31.25
37634;BME280;32048;49.902;22.508;2023-06-22T10:22:23;98953.91;;;39.88;30.98
37634;BME280;32048;49.902;22.508;2023-06-22T10:24:51;98958.06;;;40.38;29.94
37634;BME280;32048;49.902;22.508;2023-06-22T10:27:17;98948.16;;;40.58;30.18
37634;BME280;32048;49.902;22.508;2023-06-22T10:29:45;98959.81;;;40.65;30.20
37634;BME280;32048;49.902;22.508;2023-06-22T10:32:12;98953.56;;;40.95;29.02
37634;BME280;32048;49.902;22.508;2023-06-22T10:34:39;98947.25;;;41.20;28.42
37634;BME280;32048;49.902;22.508;2023-06-22T10:37:06;98951.38;;;41.28;28.68
37634;BME280;32048;49.902;22.508;2023-06-22T10:39:33;98951.38;;;41.12;29.21
37634;BME280;32048;49.902;22.508;2023-06-22T10:42:00;98944.97;;;41.02;29.49
37634;BME280;32048;49.902;22.508;2023-06-22T10:44:27;98951.56;;;40.70;29.51
37634;BME280;32048;49.902;22.508;2023-06-22T10:46:54;98949.56;;;40.55;30.06
37634;BME280;32048;49.902;22.508;2023-06-22T10:49:24;98950.41;;;40.66;30.56
37634;BME280;32048;49.902;22.508;2023-06-22T10:51:51;98951.50;;;40.65;28.69
37634;BME280;32048;49.902;22.508;2023-06-22T10:54:18;98955.16;;;40.18;30.02
37634;BME280;32048;49.902;22.508;2023-06-22T10:56:45;98950.44;;;39.70;30.88
37634;BME280;32048;49.902;22.508;2023-06-22T10:59:13;98945.38;;;39.30;32.07
37634;BME280;32048;49.902;22.508;2023-06-22T11:01:40;98947.88;;;38.99;32.02
37634;BME280;32048;49.902;22.508;2023-06-22T11:04:07;98943.94;;;38.68;32.36
37634;BME280;32048;49.902;22.508;2023-06-22T11:06:34;98934.88;;;38.73;33.49
37634;BME280;32048;49.902;22.508;2023-06-22T11:09:01;98938.00;;;38.81;32.78
37634;BME280;32048;49.902;22.508;2023-06-22T11:11:42;98925.31;;;38.85;31.74
37634;BME280;32048;49.902;22.508;2023-06-22T11:14:10;98928.00;;;38.31;32.88
37634;BME280;32048;49.902;22.508;2023-06-22T11:16:37;98919.69;;;37.53;33.05
37634;BME280;32048;49.902;22.508;2023-06-22T11:19:05;98928.47;;;36.88;33.75
37634;BME280;32048;49.902;22.508;2023-06-22T11:21:32;98925.69;;;36.18;34.50
37634;BME280;32048;49.902;22.508;2023-06-22T11:23:59;98923.28;;;35.39;36.75
37634;BME280;32048;49.902;22.508;2023-06-22T11:26:26;98929.03;;;34.96;37.87
37634;BME280;32048;49.902;22.508;2023-06-22T11:28:57;98926.00;;;34.86;39.65
37634;BME280;32048;49.902;22.508;2023-06-22T11:31:24;98916.63;;;34.93;39.43
37634;BME280;32048;49.902;22.508;2023-06-22T11:34:12;98918.97;;;35.20;40.20
37634;BME280;32048;49.902;22.508;2023-06-22T11:36:39;98905.38;;;35.37;39.96
37634;BME280;32048;49.902;22.508;2023-06-22T11:39:08;98914.00;;;35.52;41.01
37634;BME280;32048;49.902;22.508;2023-06-22T11:41:36;98923.78;;;35.60;39.85
37634;BME280;32048;49.902;22.508;2023-06-22T11:44:03;98920.91;;;35.43;38.37
37634;BME280;32048;49.902;22.508;2023-06-22T11:46:32;98926.09;;;35.09;40.01
37634;BME280;32048;49.902;22.508;2023-06-22T11:49:00;98931.91;;;35.01;42.19
37634;BME280;32048;49.902;22.508;2023-06-22T11:51:27;98925.22;;;35.09;41.76
37634;BME280;32048;49.902;22.508;2023-06-22T11:53:54;98919.13;;;35.07;40.58
37634;BME280;32048;49.902;22.508;2023-06-22T11:56:21;98912.75;;;35.13;40.83
37634;BME280;32048;49.902;22.508;2023-06-22T11:58:48;98912.41;;;34.91;39.75
37634;BME280;32048;49.902;22.508;2023-06-22T12:01:15;98905.13;;;34.36;42.97
37634;BME280;32048;49.902;22.508;2023-06-22T12:03:42;98911.63;;;34.23;42.41
37634;BME280;32048;49.902;22.508;2023-06-22T12:06:12;98917.41;;;34.33;42.11
37634;BME280;32048;49.902;22.508;2023-06-22T12:08:40;98907.28;;;34.34;41.85
37634;BME280;32048;49.902;22.508;2023-06-22T12:11:07;98902.97;;;34.26;41.09
37634;BME280;32048;49.902;22.508;2023-06-22T12:13:34;98883.97;;;34.06;40.79
37634;BME280;32048;49.902;22.508;2023-06-22T12:16:01;98889.47;;;34.06;41.25
37634;BME280;32048;49.902;22.508;2023-06-22T12:18:28;98884.22;;;34.23;41.24
37634;BME280;32048;49.902;22.508;2023-06-22T12:20:55;98885.78;;;34.49;40.38
37634;BME280;32048;49.902;22.508;2023-06-22T12:23:22;98895.19;;;34.72;40.62
37634;BME280;32048;49.902;22.508;2023-06-22T12:25:49;98909.44;;;34.92;41.06
37634;BME280;32048;49.902;22.508;2023-06-22T12:28:16;98906.00;;;35.09;40.66
37634;BME280;32048;49.902;22.508;2023-06-22T12:30:43;98899.63;;;35.27;40.30
37634;BME280;32048;49.902;22.508;2023-06-22T12:33:10;98894.06;;;35.45;40.00
37634;BME280;32048;49.902;22.508;2023-06-22T12:35:37;98896.22;;;35.67;39.23
37634;BME280;32048;49.902;22.508;2023-06-22T12:38:05;98885.69;;;35.87;39.73
37634;BME280;32048;49.902;22.508;2023-06-22T12:40:33;98884.22;;;36.08;39.41
37634;BME280;32048;49.902;22.508;2023-06-22T12:43:00;98883.84;;;36.28;38.18
37634;BME280;32048;49.902;22.508;2023-06-22T12:45:28;98885.44;;;36.41;37.46
37634;BME280;32048;49.902;22.508;2023-06-22T12:47:59;98887.72;;;36.44;37.27
37634;BME280;32048;49.902;22.508;2023-06-22T12:50:26;98882.78;;;36.17;36.84